createdAt,value
2018-03-29T02:25:24.245Z,75.08
2018-03-29T02:27:51.761Z,75.34
2018-03-29T02:30:19.239Z,75.70
2018-03-29T02:32:46.674Z,75.52
2018-03-29T02:35:14.114Z,76.58
2018-03-29T02:37:41.591Z,76.20
2018-03-29T02:40:09.037Z,76.28
2018-03-29T02:42:36.670Z,76.10
2018-03-29T02:45:04.118Z,75.13
2018-03-29T02:47:31.554Z,75.40
2018-03-29T02:49:59.035Z,74.97
2018-03-29T02:52:26.479Z,75.16
2018-03-29T02:54:53.994Z,74.47
2018-03-29T02:57:21.439Z,73.97
2018-03-29T02:59:48.885Z,74.04
2018-03-29T03:02:16.362Z,72.86
2018-03-29T03:04:43.797Z,73.34
2018-03-29T03:07:11.409Z,73.63
2018-03-29T03:09:38.845Z,73.52
2018-03-29T03:12:06.297Z,73.87
2018-03-29T03:14:33.758Z,73.86
2018-03-29T03:17:01.195Z,73.21
2018-03-29T03:19:28.687Z,73.23
2018-03-29T03:21:56.145Z,73.15
2018-03-29T03:24:23.587Z,74.23
2018-03-29T03:26:51.214Z,73.91
2018-03-29T03:29:18.653Z,74.33
2018-03-29T03:31:46.130Z,74.09
2018-03-29T03:34:13.575Z,75.23
2018-03-29T03:36:41.058Z,75.38
2018-03-29T03:39:08.645Z,74.76
2018-03-29T03:41:36.085Z,75.36
2018-03-29T03:44:03.561Z,75.31
2018-03-29T03:46:30.993Z,75.43
2018-03-29T03:48:58.443Z,74.66
2018-03-29T03:51:25.939Z,74.20
2018-03-29T03:53:53.378Z,74.03
2018-03-29T03:56:21.269Z,74.41
2018-03-29T03:58:48.729Z,74.62
2018-03-29T04:01:16.179Z,75.11
2018-03-29T04:03:43.645Z,75.34
2018-03-29T04:06:11.093Z,74.61
2018-03-29T04:08:38.822Z,75.39
2018-03-29T04:11:06.281Z,74.37
2018-03-29T04:13:33.747Z,73.75
2018-03-29T04:16:01.212Z,73.65
2018-03-29T04:18:28.677Z,73.65
2018-03-29T04:20:56.152Z,73.83
2018-03-29T04:23:23.639Z,73.63
2018-03-29T04:25:51.093Z,73.22
2018-03-29T04:28:18.533Z,72.34
2018-03-29T04:30:45.979Z,71.98
2018-03-29T04:33:13.718Z,72.86
2018-03-29T04:35:41.151Z,72.18
2018-03-29T04:38:08.589Z,72.31
2018-03-29T04:40:36.094Z,72.11
2018-03-29T04:43:03.528Z,71.77
2018-03-29T04:45:31.181Z,71.46
2018-03-29T04:47:58.617Z,71.05
2018-03-29T04:50:26.058Z,71.08
2018-03-29T04:52:53.570Z,72.68
2018-03-29T04:55:21.006Z,71.39
2018-03-29T04:57:48.495Z,71.21
2018-03-29T05:00:15.951Z,71.89
2018-03-29T05:02:43.397Z,72.07
2018-03-29T05:05:10.870Z,71.87
2018-03-29T05:07:38.409Z,72.39
2018-03-29T05:10:05.972Z,71.47
2018-03-29T05:12:33.412Z,72.52
2018-03-29T05:15:00.849Z,72.79
2018-03-29T05:17:28.322Z,72.83
2018-03-29T05:19:55.770Z,73.40
2018-03-29T05:22:23.476Z,73.16
2018-03-29T05:24:50.917Z,73.19
2018-03-29T05:27:19.736Z,73.95
2018-03-29T05:29:47.197Z,73.71
2018-03-29T05:32:14.653Z,73.76
2018-03-29T05:34:42.321Z,74.22
2018-03-29T05:37:09.765Z,74.42
2018-03-29T05:39:37.213Z,74.70
2018-03-29T05:42:04.694Z,74.67
2018-03-29T05:44:32.130Z,74.51
2018-03-29T05:46:59.767Z,73.86
2018-03-29T05:49:27.222Z,74.00
2018-03-29T05:51:54.657Z,74.28
2018-03-29T05:54:22.121Z,73.86
2018-03-29T05:56:49.557Z,74.19
2018-03-29T05:59:17.129Z,73.32
2018-03-29T06:01:44.569Z,73.90
2018-03-29T06:04:12.025Z,73.56
2018-03-29T06:06:39.481Z,73.62
2018-03-29T06:09:06.917Z,73.52
2018-03-29T06:11:34.893Z,72.98
2018-03-29T06:14:07.333Z,72.89
2018-03-29T06:16:40.661Z,73.29
2018-03-29T06:19:09.009Z,73.23
2018-03-29T06:21:36.455Z,73.21
2018-03-29T06:24:03.913Z,73.33
2018-03-29T06:26:31.369Z,73.63
2018-03-29T06:28:59.043Z,73.69
2018-03-29T06:31:26.505Z,73.74
2018-03-29T06:33:53.943Z,72.87
2018-03-29T06:36:21.435Z,72.71
2018-03-29T06:38:48.879Z,72.78
2018-03-29T06:41:16.344Z,73.23
2018-03-29T06:43:43.798Z,72.59
2018-03-29T06:46:11.239Z,72.78
2018-03-29T06:48:38.705Z,72.16
2018-03-29T06:51:06.158Z,72.91
2018-03-29T06:53:34.026Z,72.79
2018-03-29T06:56:01.474Z,72.69
2018-03-29T06:58:28.920Z,72.46
2018-03-29T07:00:56.421Z,72.88
2018-03-29T07:03:23.862Z,72.02
2018-03-29T07:05:51.490Z,72.33
2018-03-29T07:08:18.937Z,72.20
2018-03-29T07:10:46.373Z,71.61
2018-03-29T07:13:13.979Z,71.17
2018-03-29T07:15:41.446Z,71.11
2018-03-29T07:18:09.142Z,70.78
2018-03-29T07:20:36.593Z,70.08
2018-03-29T07:23:04.046Z,70.08
2018-03-29T07:25:31.517Z,69.92
2018-03-29T07:27:59.000Z,69.60
2018-03-29T07:30:26.586Z,68.78
2018-03-29T07:32:54.040Z,69.15
2018-03-29T07:35:21.527Z,69.12
2018-03-29T07:37:49.006Z,69.80
2018-03-29T07:40:16.446Z,69.08
2018-03-29T07:42:44.363Z,69.26
2018-03-29T07:45:11.814Z,68.72
2018-03-29T07:47:39.266Z,68.48
2018-03-29T07:50:06.780Z,67.35
2018-03-29T07:52:34.225Z,66.71
2018-03-29T07:55:01.797Z,68.80
2018-03-29T07:57:29.257Z,68.68
2018-03-29T07:59:56.701Z,69.06
2018-03-29T08:02:24.178Z,68.35
2018-03-29T08:04:51.665Z,67.17
2018-03-29T08:07:19.137Z,66.79
2018-03-29T08:09:46.573Z,66.98
2018-03-29T08:12:14.029Z,67.92
2018-03-29T08:14:41.486Z,66.02
2018-03-29T08:17:08.945Z,65.77
2018-03-29T08:19:36.590Z,65.19
2018-03-29T08:22:04.450Z,64.89
2018-03-29T08:24:31.899Z,65.46
2018-03-29T08:26:59.381Z,62.88
2018-03-29T08:29:26.835Z,63.91
2018-03-29T08:31:54.337Z,61.95
2018-03-29T08:34:21.778Z,61.37
2018-03-29T08:36:49.217Z,59.91
2018-03-29T08:39:16.690Z,59.33
2018-03-29T08:41:44.121Z,57.36
2018-03-29T08:44:11.589Z,56.88
2018-03-29T08:46:41.989Z,57.90
2018-03-29T08:49:09.529Z,59.05
2018-03-29T08:51:36.985Z,57.93
2018-03-29T08:54:04.421Z,57.26
2018-03-29T08:56:32.148Z,57.78
2018-03-29T08:59:03.658Z,56.34
2018-03-29T09:01:31.173Z,55.67
2018-03-29T09:03:58.649Z,55.16
2018-03-29T09:06:27.868Z,55.66
2018-03-29T09:08:55.417Z,55.30
2018-03-29T09:11:22.878Z,55.11
2018-03-29T09:13:50.487Z,55.43
2018-03-29T09:16:17.925Z,54.22
2018-03-29T09:18:45.382Z,53.92
2018-03-29T09:21:12.847Z,53.98
2018-03-29T09:23:40.289Z,53.40
2018-03-29T09:26:07.791Z,52.12
2018-03-29T09:28:35.233Z,53.24
2018-03-29T09:31:03.614Z,54.76
2018-03-29T09:33:32.779Z,52.89
2018-03-29T09:36:00.343Z,53.15
2018-03-29T09:38:28.130Z,53.10
2018-03-29T09:40:55.574Z,52.09
2018-03-29T09:43:23.013Z,51.24
2018-03-29T09:45:50.485Z,52.45
2018-03-29T09:48:17.928Z,52.00
2018-03-29T09:50:45.398Z,52.03
2018-03-29T09:53:12.842Z,51.98
2018-03-29T09:55:40.283Z,52.66
2018-03-29T09:58:08.237Z,52.73
2018-03-29T10:00:35.701Z,51.09
2018-03-29T10:03:08.893Z,52.50
2018-03-29T10:05:38.277Z,51.36
2018-03-29T10:08:05.784Z,50.43
2018-03-29T10:10:33.277Z,50.66
2018-03-29T10:13:00.742Z,50.15
2018-03-29T10:15:28.462Z,49.45
2018-03-29T10:17:55.907Z,50.81
2018-03-29T10:20:23.380Z,50.07
2018-03-29T10:22:50.857Z,52.23
2018-03-29T10:25:18.301Z,53.03
2018-03-29T10:27:45.767Z,54.93
2018-03-29T10:30:13.278Z,53.45
2018-03-29T10:32:40.681Z,53.92
2018-03-29T10:35:08.170Z,51.05
2018-03-29T10:37:35.609Z,50.93
2018-03-29T10:40:03.110Z,51.31
2018-03-29T10:42:30.591Z,52.23
2018-03-29T10:44:58.028Z,50.79
2018-03-29T10:47:25.494Z,53.13
2018-03-29T10:49:52.941Z,53.93
2018-03-29T10:52:20.508Z,53.59
2018-03-29T10:54:47.965Z,52.18
2018-03-29T10:57:15.415Z,51.18
2018-03-29T10:59:42.875Z,49.88
2018-03-29T11:02:10.502Z,50.64
2018-03-29T11:04:38.105Z,51.48
2018-03-29T11:07:05.606Z,50.82
2018-03-29T11:09:33.063Z,49.92
2018-03-29T11:12:00.549Z,48.98
2018-03-29T11:14:27.997Z,49.00
2018-03-29T11:16:55.718Z,46.02
2018-03-29T11:19:23.158Z,48.19
2018-03-29T11:21:50.606Z,45.66
2018-03-29T11:24:18.085Z,47.54
2018-03-29T11:26:45.533Z,48.50
2018-03-29T11:29:13.043Z,44.58
2018-03-29T11:31:40.485Z,45.58
2018-03-29T11:34:07.965Z,44.49
2018-03-29T11:36:35.431Z,44.16
2018-03-29T11:39:02.905Z,44.38
2018-03-29T11:41:30.378Z,44.49
2018-03-29T11:43:57.837Z,45.20
2018-03-29T11:46:25.278Z,42.85
2018-03-29T11:48:52.749Z,44.45
2018-03-29T11:51:20.197Z,43.10
2018-03-29T11:53:47.994Z,42.79
2018-03-29T11:56:15.434Z,43.62
2018-03-29T11:58:42.906Z,45.30
2018-03-29T12:01:10.374Z,46.07
2018-03-29T12:03:37.814Z,45.75
2018-03-29T12:06:05.518Z,44.13
2018-03-29T12:08:32.966Z,45.41
2018-03-29T12:11:00.418Z,45.55
2018-03-29T12:13:27.882Z,45.39
2018-03-29T12:15:55.338Z,45.14
2018-03-29T12:18:22.970Z,45.73
2018-03-29T12:20:50.437Z,45.83
2018-03-29T12:23:17.882Z,46.44
2018-03-29T12:25:45.341Z,46.30
2018-03-29T12:28:12.801Z,44.52
2018-03-29T12:30:40.421Z,46.13
2018-03-29T12:33:07.869Z,45.69
2018-03-29T12:35:35.329Z,44.25
2018-03-29T12:38:02.785Z,44.09
2018-03-29T12:40:30.238Z,44.63
2018-03-29T12:42:57.911Z,45.25
2018-03-29T12:45:25.350Z,46.08
2018-03-29T12:47:52.798Z,48.96
2018-03-29T12:50:20.309Z,50.10
2018-03-29T12:52:47.726Z,48.32
2018-03-29T12:55:27.005Z,47.49
2018-03-29T12:58:06.493Z,48.33
2018-03-29T13:00:34.429Z,48.79
2018-03-29T13:03:01.904Z,48.63
2018-03-29T13:05:29.356Z,50.52
2018-03-29T13:07:56.837Z,51.67
2018-03-29T13:10:24.282Z,54.49
2018-03-29T13:12:51.997Z,54.33
2018-03-29T13:15:19.438Z,53.93
2018-03-29T13:17:46.921Z,55.12
2018-03-29T13:20:14.399Z,55.00
2018-03-29T13:22:41.855Z,53.45
2018-03-29T13:25:09.460Z,52.72
2018-03-29T13:27:36.907Z,53.94
2018-03-29T13:30:04.393Z,53.41
2018-03-29T13:32:31.855Z,53.86
2018-03-29T13:34:59.301Z,53.86
2018-03-29T13:37:26.774Z,52.98
2018-03-29T13:39:54.210Z,53.73
2018-03-29T13:42:21.746Z,58.31
2018-03-29T13:44:49.238Z,62.64
2018-03-29T13:47:16.656Z,61.13
2018-03-29T13:49:44.215Z,62.90
2018-03-29T13:52:11.676Z,59.41
2018-03-29T13:54:39.120Z,56.88
2018-03-29T13:57:06.585Z,54.89
2018-03-29T13:59:34.029Z,53.31
2018-03-29T14:02:01.905Z,52.47
2018-03-29T14:04:29.354Z,55.33
2018-03-29T14:06:56.789Z,54.20
2018-03-29T14:09:24.255Z,55.28
2018-03-29T14:11:51.713Z,51.85
2018-03-29T14:14:19.197Z,52.27
2018-03-29T14:16:46.665Z,52.44
2018-03-29T14:19:15.083Z,51.84
2018-03-29T14:21:42.545Z,50.06
2018-03-29T14:24:09.989Z,50.68
2018-03-29T14:26:37.618Z,51.92
2018-03-29T14:29:05.094Z,51.52
2018-03-29T14:31:32.557Z,52.73
2018-03-29T14:34:00.042Z,51.40
2018-03-29T14:36:27.498Z,50.33
2018-03-29T14:38:55.165Z,51.33
2018-03-29T14:41:22.648Z,52.54
2018-03-29T14:43:50.110Z,51.52
2018-03-29T14:46:17.630Z,50.75
2018-03-29T14:48:45.105Z,50.90
2018-03-29T14:51:12.701Z,53.03
2018-03-29T14:53:40.150Z,51.63
2018-03-29T14:56:07.595Z,51.17
2018-03-29T14:58:35.073Z,50.75
2018-03-29T15:01:02.545Z,48.81
2018-03-29T15:03:30.181Z,48.92
2018-03-29T15:05:57.621Z,49.41
2018-03-29T15:08:25.065Z,48.46
2018-03-29T15:10:52.544Z,48.14
2018-03-29T15:13:19.987Z,49.06
2018-03-29T15:15:47.473Z,48.66
2018-03-29T15:18:14.933Z,47.73
2018-03-29T15:20:42.388Z,48.54
2018-03-29T15:23:12.580Z,47.58
2018-03-29T15:25:43.331Z,47.52
2018-03-29T15:28:11.098Z,48.40
2018-03-29T15:30:41.795Z,49.52
2018-03-29T15:33:09.262Z,48.61
2018-03-29T15:35:36.766Z,48.87
2018-03-29T15:38:04.242Z,49.21
2018-03-29T15:40:31.855Z,49.52
2018-03-29T15:43:01.799Z,49.83
2018-03-29T15:45:29.294Z,49.53
2018-03-29T15:47:56.819Z,50.32
2018-03-29T15:50:24.298Z,50.71
2018-03-29T15:52:52.270Z,49.92
2018-03-29T15:55:19.713Z,51.36
2018-03-29T15:57:47.164Z,49.93
2018-03-29T16:00:14.621Z,48.03
2018-03-29T16:02:42.266Z,49.03
2018-03-29T16:05:09.741Z,50.21
2018-03-29T16:07:37.193Z,50.17
2018-03-29T16:10:04.646Z,50.38
2018-03-29T16:12:32.124Z,50.06
2018-03-29T16:14:59.579Z,50.87
2018-03-29T16:17:27.282Z,49.22
2018-03-29T16:19:54.725Z,50.41
2018-03-29T16:22:22.173Z,50.26
2018-03-29T16:24:49.633Z,50.45
2018-03-29T16:27:17.073Z,51.01
2018-03-29T16:29:44.738Z,50.31
2018-03-29T16:32:12.183Z,48.79
2018-03-29T16:34:39.677Z,49.24
2018-03-29T16:37:07.149Z,49.94
2018-03-29T16:39:34.605Z,50.35
2018-03-29T16:42:02.285Z,51.61
2018-03-29T16:44:29.759Z,51.83
2018-03-29T16:46:57.221Z,51.24
2018-03-29T16:49:24.698Z,52.13
2018-03-29T16:51:52.155Z,52.20
2018-03-29T16:54:19.922Z,52.74
2018-03-29T16:56:47.366Z,53.04
2018-03-29T16:59:14.813Z,51.71
2018-03-29T17:01:42.326Z,51.73
2018-03-29T17:04:09.773Z,51.65
2018-03-29T17:06:37.234Z,52.01
2018-03-29T17:09:04.690Z,52.89
2018-03-29T17:11:32.338Z,53.96
2018-03-29T17:13:59.781Z,52.63
2018-03-29T17:16:27.221Z,53.30
2018-03-29T17:18:54.712Z,53.22
2018-03-29T17:21:22.161Z,54.24
2018-03-29T17:23:49.921Z,53.15
2018-03-29T17:26:17.405Z,54.25
2018-03-29T17:28:44.847Z,54.51
2018-03-29T17:31:12.305Z,54.34
2018-03-29T17:33:39.750Z,53.69
2018-03-29T17:36:07.364Z,54.74
2018-03-29T17:38:34.779Z,55.05
2018-03-29T17:41:02.238Z,55.35
2018-03-29T17:43:29.705Z,55.67
2018-03-29T17:45:57.159Z,56.18
2018-03-29T17:48:24.978Z,55.58
2018-03-29T17:50:52.417Z,57.02
2018-03-29T17:53:19.859Z,56.08
2018-03-29T17:55:47.322Z,56.74
2018-03-29T17:58:14.765Z,56.72
2018-03-29T18:00:42.541Z,57.69
2018-03-29T18:03:10.002Z,57.58
2018-03-29T18:05:37.454Z,57.96
2018-03-29T18:08:04.913Z,58.86
2018-03-29T18:10:32.367Z,58.85
2018-03-29T18:13:00.036Z,59.21
2018-03-29T18:15:27.487Z,58.91
2018-03-29T18:17:54.929Z,59.78
2018-03-29T18:20:22.429Z,60.26
2018-03-29T18:22:50.804Z,60.55
2018-03-29T18:25:18.370Z,60.84
2018-03-29T18:27:45.814Z,61.49
2018-03-29T18:30:13.258Z,62.31
2018-03-29T18:32:40.721Z,62.86
2018-03-29T18:35:08.174Z,63.27
2018-03-29T18:37:35.801Z,63.29
2018-03-29T18:40:03.249Z,63.71
2018-03-29T18:42:30.717Z,64.04
2018-03-29T18:44:58.197Z,64.05
2018-03-29T18:47:25.650Z,64.07
2018-03-29T18:49:53.125Z,64.98
2018-03-29T18:52:21.431Z,65.78
2018-03-29T18:54:48.871Z,65.69
2018-03-29T18:57:16.354Z,66.24
2018-03-29T18:59:43.886Z,66.31
2018-03-29T19:02:12.327Z,67.08
2018-03-29T19:04:39.975Z,66.97
2018-03-29T19:07:07.441Z,66.64
2018-03-29T19:09:34.965Z,66.21
2018-03-29T19:12:02.421Z,68.58
2018-03-29T19:14:29.997Z,69.21
2018-03-29T19:16:57.446Z,69.12
2018-03-29T19:19:24.904Z,68.62
2018-03-29T19:21:52.386Z,67.99
2018-03-29T19:24:20.986Z,67.98
2018-03-29T19:26:48.606Z,67.36
2018-03-29T19:29:16.059Z,67.43
2018-03-29T19:31:43.512Z,68.57
2018-03-29T19:34:11.103Z,68.80
2018-03-29T19:36:38.557Z,68.97
2018-03-29T19:39:06.238Z,68.98
2018-03-29T19:41:33.726Z,69.62
2018-03-29T19:44:01.186Z,70.59
2018-03-29T19:46:28.646Z,71.18
2018-03-29T19:48:56.102Z,71.51
2018-03-29T19:51:23.571Z,71.78
2018-03-29T19:53:51.012Z,72.07
2018-03-29T19:56:19.462Z,72.14
2018-03-29T19:58:46.953Z,72.46
2018-03-29T20:01:14.417Z,72.47
2018-03-29T20:03:42.407Z,73.04
2018-03-29T20:06:09.861Z,73.71
2018-03-29T20:08:37.328Z,73.14
2018-03-29T20:11:04.810Z,73.53
2018-03-29T20:13:32.266Z,73.61
2018-03-29T20:15:59.770Z,73.72
2018-03-29T20:18:27.246Z,73.76
2018-03-29T20:20:55.746Z,73.70
2018-03-29T20:23:23.256Z,75.58
2018-03-29T20:25:50.715Z,76.50
2018-03-29T20:28:18.193Z,76.55
2018-03-29T20:30:45.669Z,76.78
2018-03-29T20:33:13.570Z,75.45
2018-03-29T20:35:41.058Z,75.36
2018-03-29T20:38:08.657Z,76.58
2018-03-29T20:40:36.128Z,76.79
2018-03-29T20:43:03.598Z,76.61
2018-03-29T20:45:31.065Z,76.75
2018-03-29T20:47:58.518Z,77.07
2018-03-29T20:50:26.345Z,76.58
2018-03-29T20:52:53.818Z,77.03
2018-03-29T20:55:21.291Z,77.05
2018-03-29T20:57:48.777Z,76.28
2018-03-29T21:00:16.225Z,76.93
2018-03-29T21:02:44.002Z,77.23
2018-03-29T21:05:11.445Z,77.77
2018-03-29T21:07:38.894Z,78.24
2018-03-29T21:10:06.393Z,78.47
2018-03-29T21:12:33.854Z,79.11
2018-03-29T21:15:01.762Z,78.49
2018-03-29T21:17:29.234Z,77.62
2018-03-29T21:19:56.709Z,78.90
2018-03-29T21:22:24.178Z,79.49
2018-03-29T21:24:51.640Z,79.79
2018-03-29T21:27:19.209Z,78.78
2018-03-29T21:29:46.674Z,78.29
2018-03-29T21:32:14.141Z,78.65
2018-03-29T21:34:41.673Z,78.99
2018-03-29T21:37:09.121Z,78.78
2018-03-29T21:39:36.585Z,79.25
2018-03-29T21:42:04.071Z,78.89
2018-03-29T21:44:31.506Z,79.70
2018-03-29T21:46:58.972Z,80.12
2018-03-29T21:49:26.414Z,80.53
2018-03-29T21:51:54.128Z,80.45
2018-03-29T21:54:21.562Z,79.75
2018-03-29T21:56:49.030Z,79.54
2018-03-29T21:59:16.525Z,80.38
2018-03-29T22:01:43.969Z,80.69
2018-03-29T22:04:11.433Z,79.92
2018-03-29T22:06:38.890Z,80.95
2018-03-29T22:09:06.357Z,81.23
2018-03-29T22:11:33.842Z,80.82
2018-03-29T22:14:01.295Z,80.25
2018-03-29T22:16:28.906Z,80.79
2018-03-29T22:18:56.345Z,81.17
2018-03-29T22:21:23.793Z,81.40
2018-03-29T22:23:51.264Z,81.74
2018-03-29T22:26:18.702Z,81.01
2018-03-29T22:28:46.412Z,81.38
2018-03-29T22:31:13.851Z,81.22
2018-03-29T22:33:41.286Z,81.24
2018-03-29T22:36:08.758Z,82.43
2018-03-29T22:38:36.192Z,82.53
2018-03-29T22:41:03.836Z,82.43
2018-03-29T22:43:31.300Z,81.42
2018-03-29T22:45:58.734Z,81.07
2018-03-29T22:48:26.208Z,81.32
2018-03-29T22:50:53.645Z,81.21
2018-03-29T22:53:21.250Z,81.63
2018-03-29T22:55:48.697Z,82.31
2018-03-29T22:58:16.153Z,82.09
2018-03-29T23:00:43.617Z,81.65
2018-03-29T23:03:11.053Z,81.89
2018-03-29T23:05:38.524Z,81.41
2018-03-29T23:08:05.988Z,82.40
2018-03-29T23:10:33.446Z,82.79
2018-03-29T23:13:00.902Z,82.40
2018-03-29T23:15:28.355Z,82.74
2018-03-29T23:17:55.817Z,82.47
2018-03-29T23:20:23.290Z,83.06
2018-03-29T23:22:50.738Z,83.70
2018-03-29T23:25:18.217Z,83.45
2018-03-29T23:27:45.685Z,83.59
2018-03-29T23:30:13.215Z,83.83
2018-03-29T23:32:40.674Z,83.44
2018-03-29T23:35:08.109Z,82.71
2018-03-29T23:37:35.573Z,83.50
2018-03-29T23:40:03.008Z,83.24
2018-03-29T23:42:30.441Z,83.44
2018-03-29T23:44:57.910Z,83.27
2018-03-29T23:47:25.342Z,83.12
2018-03-29T23:49:52.802Z,82.94
2018-03-29T23:52:20.267Z,83.59
2018-03-29T23:54:47.707Z,82.01
2018-03-29T23:57:15.149Z,82.93
2018-03-29T23:59:42.609Z,82.95
